Time;durP1;ratioP1;P1;durP2;ratioP2;P2;SDS_P1;SDS_P2;PMS_P1;PMS_P2;Temp;Humidity;BMP_temperature;BMP_pressure;BME280_temperature;BME280_humidity;BME280_pressure;Samples;Min_cycle;Max_cycle;Signal;HPM_P1;HPM_P2
2024/01/15 00:00:17;;;;;;;0.30;0.20;;;2.00;99.90;;;;;;5088349;28;20665;-76
2024/01/15 00:02:43;;;;;;;0.30;0.30;;;2.00;99.90;;;;;;5088205;28;20551;-77
2024/01/15 00:05:09;;;;;;;0.30;0.20;;;2.00;99.90;;;;;;5089284;28;20204;-75
2024/01/15 00:07:35;;;;;;;0.30;0.20;;;2.00;99.90;;;;;;5089885;28;20536;-77
2024/01/15 00:10:01;;;;;;;0.30;0.30;;;1.90;99.90;;;;;;5087554;28;20244;-77
2024/01/15 00:12:27;;;;;;;0.30;0.20;;;1.90;99.90;;;;;;5089630;28;20616;-76
2024/01/15 00:14:53;;;;;;;0.30;0.30;;;1.90;99.90;;;;;;5089166;28;20256;-77
2024/01/15 00:17:19;;;;;;;0.30;0.30;;;1.80;99.90;;;;;;5087120;28;20365;-77
2024/01/15 00:19:44;;;;;;;0.30;0.30;;;1.90;99.90;;;;;;5088173;28;20204;-75
2024/01/15 00:22:10;;;;;;;0.30;0.30;;;1.90;99.90;;;;;;5089549;28;20503;-75
2024/01/15 00:24:35;;;;;;;0.30;0.30;;;1.90;99.90;;;;;;5087287;28;20602;-75
2024/01/15 00:27:01;;;;;;;0.30;0.30;;;1.90;99.90;;;;;;5087532;28;20181;-74
2024/01/15 00:29:27;;;;;;;0.30;0.30;;;1.90;99.90;;;;;;5089183;28;20220;-77
2024/01/15 00:31:52;;;;;;;0.30;0.30;;;1.90;99.90;;;;;;5087776;28;20648;-75
2024/01/15 00:34:18;;;;;;;0.30;0.30;;;1.90;99.90;;;;;;5087670;28;20207;-76
2024/01/15 00:36:44;;;;;;;0.30;0.30;;;1.90;99.90;;;;;;5089464;28;20180;-77
2024/01/15 00:39:10;;;;;;;0.30;0.23;;;1.90;99.90;;;;;;5089072;28;20218;-74
2024/01/15 00:41:36;;;;;;;0.30;0.30;;;1.90;99.90;;;;;;5089251;28;20172;-75
2024/01/15 00:44:02;;;;;;;0.30;0.30;;;1.90;99.90;;;;;;5087385;28;20234;-75
2024/01/15 00:46:28;;;;;;;0.30;0.30;;;1.90;99.90;;;;;;5087756;28;20776;-77
2024/01/15 00:48:54;;;;;;;0.30;0.20;;;1.90;99.90;;;;;;5087514;28;20212;-74
2024/01/15 00:51:20;;;;;;;0.30;0.30;;;1.90;99.90;;;;;;5087844;28;20405;-76
2024/01/15 00:53:46;;;;;;;0.30;0.20;;;1.90;99.90;;;;;;5090000;28;20192;-75
2024/01/15 00:56:11;;;;;;;0.30;0.30;;;1.90;99.90;;;;;;5091479;28;20387;-75
2024/01/15 00:58:37;;;;;;;0.30;0.20;;;1.90;99.90;;;;;;5092526;28;20192;-74
2024/01/15 01:01:03;;;;;;;0.30;0.30;;;1.80;99.90;;;;;;5092973;28;20173;-77
2024/01/15 01:03:29;;;;;;;0.30;0.30;;;1.80;99.90;;;;;;5092783;28;20221;-75
2024/01/15 01:05:54;;;;;;;0.30;0.30;;;1.70;99.90;;;;;;5091180;28;20199;-74
2024/01/15 01:08:20;;;;;;;0.30;0.30;;;1.70;99.90;;;;;;5092117;28;20235;-75
2024/01/15 01:10:45;;;;;;;0.30;0.20;;;1.80;99.90;;;;;;5091235;28;20219;-77
2024/01/15 01:13:11;;;;;;;0.53;0.53;;;1.80;99.90;;;;;;5090935;28;20215;-77
2024/01/15 01:15:38;;;;;;;0.30;0.27;;;1.80;99.90;;;;;;5092110;28;20183;-77
2024/01/15 01:18:04;;;;;;;0.30;0.30;;;1.80;99.90;;;;;;5091698;28;20253;-74
2024/01/15 01:20:30;;;;;;;0.35;0.32;;;1.80;99.90;;;;;;5090717;28;20204;-75
2024/01/15 01:22:56;;;;;;;0.30;0.30;;;1.80;99.90;;;;;;5091990;28;20268;-74
2024/01/15 01:25:21;;;;;;;0.30;0.30;;;1.80;99.90;;;;;;5090466;28;20187;-77
2024/01/15 01:27:47;;;;;;;0.30;0.30;;;1.80;99.90;;;;;;5091876;28;20191;-74
2024/01/15 01:30:13;;;;;;;0.30;0.30;;;1.70;99.90;;;;;;5092156;28;20212;-77
2024/01/15 01:32:39;;;;;;;0.30;0.30;;;1.70;99.90;;;;;;5090745;28;20180;-75
2024/01/15 01:35:05;;;;;;;0.30;0.30;;;1.70;99.90;;;;;;5091797;28;20397;-75
2024/01/15 01:37:30;;;;;;;0.30;0.30;;;1.70;99.90;;;;;;5092100;28;20633;-74
2024/01/15 01:39:56;;;;;;;0.30;0.30;;;1.70;99.90;;;;;;5090657;28;20402;-77
2024/01/15 01:42:22;;;;;;;0.30;0.30;;;1.60;99.90;;;;;;5090606;28;20187;-77
2024/01/15 01:44:47;;;;;;;0.30;0.30;;;1.60;99.90;;;;;;5090668;28;20295;-76
2024/01/15 01:47:14;;;;;;;0.30;0.30;;;1.60;99.90;;;;;;5091877;28;20173;-75
2024/01/15 01:49:41;;;;;;;0.30;0.30;;;1.70;99.90;;;;;;5090101;28;20232;-74
2024/01/15 01:52:08;;;;;;;0.30;0.30;;;1.60;99.90;;;;;;5090256;28;20229;-77
2024/01/15 01:54:35;;;;;;;0.30;0.20;;;1.70;99.90;;;;;;5090125;28;20212;-75
2024/01/15 01:57:03;;;;;;;0.30;0.20;;;1.70;99.90;;;;;;5090207;28;20183;-77
2024/01/15 01:59:30;;;;;;;0.30;0.30;;;1.70;99.90;;;;;;5091425;28;20696;-76
2024/01/15 02:01:56;;;;;;;0.30;0.20;;;1.70;99.90;;;;;;5091509;28;20177;-77
2024/01/15 02:04:25;;;;;;;0.30;0.30;;;1.70;99.90;;;;;;5090223;28;20200;-75
2024/01/15 02:06:51;;;;;;;0.30;0.30;;;1.70;99.90;;;;;;5090185;28;20192;-74
2024/01/15 02:09:20;;;;;;;0.30;0.20;;;1.70;99.90;;;;;;5090996;28;20236;-77
2024/01/15 02:11:47;;;;;;;0.30;0.20;;;1.60;99.90;;;;;;5091378;28;20463;-75
2024/01/15 02:14:13;;;;;;;0.30;0.30;;;1.60;99.90;;;;;;5091148;28;20204;-77
2024/01/15 02:16:39;;;;;;;0.30;0.30;;;1.50;99.90;;;;;;5089985;28;20177;-74
2024/01/15 02:19:04;;;;;;;0.30;0.30;;;1.50;99.90;;;;;;5090552;28;20204;-77
2024/01/15 02:21:32;;;;;;;0.30;0.30;;;1.50;99.90;;;;;;5090760;28;20179;-76
2024/01/15 02:23:58;;;;;;;0.30;0.30;;;1.50;99.90;;;;;;5089556;28;20681;-75
2024/01/15 02:26:23;;;;;;;0.30;0.30;;;1.50;99.90;;;;;;5090906;28;20200;-75
2024/01/15 02:28:51;;;;;;;0.30;0.30;;;1.50;99.90;;;;;;5088848;28;20840;-77
2024/01/15 02:31:16;;;;;;;2.08;2.05;;;1.50;99.90;;;;;;5089481;28;20173;-77
2024/01/15 02:33:43;;;;;;;0.30;0.30;;;1.50;99.90;;;;;;5090538;28;20741;-74
2024/01/15 02:36:09;;;;;;;0.30;0.20;;;1.60;99.90;;;;;;5089266;28;20388;-77
2024/01/15 02:38:35;;;;;;;0.30;0.20;;;1.60;99.90;;;;;;5090855;28;20249;-74
2024/01/15 02:41:00;;;;;;;0.30;0.20;;;1.60;99.90;;;;;;5091305;28;20654;-76
2024/01/15 02:43:26;;;;;;;0.30;0.20;;;1.70;99.90;;;;;;5089342;28;20253;-74
2024/01/15 02:45:52;;;;;;;0.30;0.30;;;1.70;99.90;;;;;;5090830;28;20657;-77
2024/01/15 02:48:17;;;;;;;0.30;0.30;;;1.80;99.90;;;;;;5089161;28;20262;-76
2024/01/15 02:50:43;;;;;;;0.30;0.30;;;1.80;99.90;;;;;;5089276;28;20208;-77
2024/01/15 02:53:09;;;;;;;32.85;30.88;;;1.80;99.90;;;;;;5089125;28;20273;-74
2024/01/15 02:55:35;;;;;;;5.33;5.10;;;1.80;99.90;;;;;;5088959;28;20181;-74
2024/01/15 02:58:00;;;;;;;0.30;0.30;;;1.80;99.90;;;;;;5090201;28;20550;-75
2024/01/15 03:00:26;;;;;;;0.30;0.30;;;1.80;99.90;;;;;;5090372;28;20180;-75
2024/01/15 03:02:51;;;;;;;0.30;0.30;;;1.90;99.90;;;;;;5088929;28;20207;-74
2024/01/15 03:05:17;;;;;;;0.30;0.30;;;1.90;99.90;;;;;;5090344;28;20172;-77
2024/01/15 03:07:43;;;;;;;0.30;0.30;;;1.90;99.90;;;;;;5090171;28;20192;-75
2024/01/15 03:10:09;;;;;;;0.30;0.30;;;2.00;99.90;;;;;;5087877;28;20781;-77
2024/01/15 03:12:35;;;;;;;0.30;0.20;;;2.00;99.90;;;;;;5090314;28;20634;-77
2024/01/15 03:15:01;;;;;;;0.30;0.30;;;2.10;99.90;;;;;;5088953;28;20487;-77
2024/01/15 03:17:27;;;;;;;0.30;0.30;;;2.10;99.90;;;;;;5088602;28;20387;-74
2024/01/15 03:19:53;;;;;;;0.30;0.30;;;2.10;99.90;;;;;;5088427;28;20972;-74
2024/01/15 03:22:18;;;;;;;0.30;0.30;;;2.10;99.90;;;;;;5088276;28;20407;-75
2024/01/15 03:24:44;;;;;;;0.30;0.20;;;2.20;99.90;;;;;;5089377;28;20254;-76
2024/01/15 03:27:10;;;;;;;0.30;0.27;;;2.20;99.90;;;;;;5088249;28;20449;-75
2024/01/15 03:29:36;;;;;;;0.30;0.30;;;2.30;99.90;;;;;;5087891;28;20448;-77
2024/01/15 03:32:02;;;;;;;0.30;0.30;;;2.30;99.90;;;;;;5088285;28;20179;-77
2024/01/15 03:34:27;;;;;;;0.30;0.30;;;2.40;99.90;;;;;;5088165;28;20192;-75
2024/01/15 03:36:53;;;;;;;0.30;0.23;;;2.40;99.90;;;;;;5089646;28;20169;-75
2024/01/15 03:39:19;;;;;;;0.30;0.30;;;2.40;99.90;;;;;;5088309;28;20197;-75
2024/01/15 03:41:44;;;;;;;0.30;0.30;;;2.50;99.90;;;;;;5090071;28;20498;-74
2024/01/15 03:44:10;;;;;;;0.30;0.30;;;2.50;99.90;;;;;;5089577;28;20942;-76
2024/01/15 03:46:36;;;;;;;0.30;0.30;;;2.60;99.90;;;;;;5088514;28;20686;-76
2024/01/15 03:49:02;;;;;;;2.23;2.13;;;2.60;99.90;;;;;;5089280;28;20685;-74
2024/01/15 03:51:27;;;;;;;0.30;0.20;;;2.70;99.90;;;;;;5088379;28;20604;-74
2024/01/15 03:53:53;;;;;;;0.30;0.20;;;2.80;99.90;;;;;;5087934;28;20238;-76
2024/01/15 03:56:19;;;;;;;6.50;6.23;;;2.80;99.90;;;;;;5088227;28;20656;-75
2024/01/15 03:58:44;;;;;;;0.30;0.30;;;2.90;99.90;;;;;;5087909;28;20302;-77
2024/01/15 04:01:10;;;;;;;0.30;0.30;;;3.00;99.90;;;;;;5089629;28;20177;-74
2024/01/15 04:03:36;;;;;;;0.30;0.30;;;3.00;99.90;;;;;;5087927;28;20204;-74
2024/01/15 04:06:03;;;;;;;0.30;0.30;;;3.10;99.90;;;;;;5088429;28;20181;-75
2024/01/15 04:08:28;;;;;;;0.30;0.30;;;3.20;99.90;;;;;;5088682;28;20224;-74
2024/01/15 04:10:54;;;;;;;2.30;2.20;;;3.30;99.90;;;;;;5088063;28;20191;-77
2024/01/15 04:13:20;;;;;;;0.30;0.30;;;3.40;99.90;;;;;;5089268;28;20188;-77
2024/01/15 04:15:46;;;;;;;0.30;0.20;;;3.50;99.90;;;;;;5088163;28;20183;-77
2024/01/15 04:18:12;;;;;;;0.30;0.30;;;3.50;99.90;;;;;;5089728;28;20917;-75
2024/01/15 04:20:38;;;;;;;0.30;0.30;;;3.60;99.90;;;;;;5089835;28;20172;-77
2024/01/15 04:23:04;;;;;;;0.30;0.20;;;3.60;99.90;;;;;;5087285;28;20287;-74
2024/01/15 04:25:30;;;;;;;0.80;0.80;;;3.60;99.90;;;;;;5087981;28;20292;-75
2024/01/15 04:27:56;;;;;;;0.30;0.20;;;3.70;99.90;;;;;;5088719;28;20415;-75
2024/01/15 04:30:22;;;;;;;0.30;0.30;;;3.70;99.90;;;;;;5093265;28;20474;-77
2024/01/15 04:32:47;;;;;;;0.80;0.80;;;3.80;99.90;;;;;;5091864;28;20633;-75
2024/01/15 04:35:13;;;;;;;0.30;0.30;;;3.90;99.90;;;;;;5093001;28;20919;-75
2024/01/15 04:37:40;;;;;;;0.30;0.20;;;3.90;99.90;;;;;;5091841;28;20230;-77
2024/01/15 04:40:07;;;;;;;1.23;1.23;;;4.00;99.90;;;;;;5091375;28;20649;-77
2024/01/15 04:42:32;;;;;;;0.40;0.40;;;4.10;99.90;;;;;;5093313;28;20230;-76
2024/01/15 04:44:59;;;;;;;0.30;0.30;;;4.20;99.90;;;;;;5090931;28;20176;-77
2024/01/15 04:47:24;;;;;;;0.30;0.20;;;4.30;99.90;;;;;;5091479;28;20176;-75
2024/01/15 04:49:51;;;;;;;0.30;0.30;;;4.30;99.90;;;;;;5091157;28;20239;-75
2024/01/15 04:52:17;;;;;;;0.30;0.20;;;4.30;99.90;;;;;;5092192;28;20961;-75
2024/01/15 04:54:42;;;;;;;0.30;0.20;;;4.40;99.90;;;;;;5092302;28;20310;-76
2024/01/15 04:57:08;;;;;;;0.30;0.30;;;4.50;99.90;;;;;;5092140;28;20180;-76
2024/01/15 04:59:34;;;;;;;0.30;0.20;;;4.50;99.90;;;;;;5091533;28;20208;-77
2024/01/15 05:01:59;;;;;;;0.30;0.20;;;4.60;99.90;;;;;;5091151;28;20416;-76
2024/01/15 05:04:25;;;;;;;0.30;0.20;;;4.70;99.90;;;;;;5091034;28;20486;-77
2024/01/15 05:06:51;;;;;;;0.30;0.20;;;4.70;99.90;;;;;;5090683;28;20733;-76
2024/01/15 05:09:17;;;;;;;0.30;0.30;;;4.70;99.90;;;;;;5090191;28;20592;-77
2024/01/15 05:11:43;;;;;;;0.30;0.20;;;4.70;99.90;;;;;;5089616;28;20268;-77
2024/01/15 05:14:09;;;;;;;0.30;0.20;;;4.80;99.90;;;;;;5089258;28;20777;-76
2024/01/15 05:16:37;;;;;;;0.30;0.20;;;4.80;99.90;;;;;;5091480;28;20396;-77
2024/01/15 05:19:03;;;;;;;0.30;0.25;;;4.80;99.90;;;;;;5091743;28;20193;-77
2024/01/15 05:21:29;;;;;;;0.30;0.20;;;4.80;99.90;;;;;;5091315;28;20180;-77
2024/01/15 05:23:54;;;;;;;0.30;0.20;;;4.80;99.90;;;;;;5090590;28;20210;-77
2024/01/15 05:26:20;;;;;;;0.30;0.20;;;4.80;99.90;;;;;;5084955;28;20192;-76
2024/01/15 05:28:46;;;;;;;0.50;0.50;;;4.80;99.90;;;;;;5068658;28;20201;-75
2024/01/15 05:31:11;;;;;;;0.30;0.20;;;4.80;99.90;;;;;;5085159;28;20893;-78
2024/01/15 05:33:38;;;;;;;0.30;0.20;;;4.90;99.90;;;;;;5088889;28;20284;-76
2024/01/15 05:36:03;;;;;;;0.30;0.30;;;4.80;99.90;;;;;;5088913;28;20665;-77
2024/01/15 05:38:29;;;;;;;0.30;0.20;;;4.90;99.90;;;;;;5087103;28;20212;-76
2024/01/15 05:40:55;;;;;;;0.30;0.20;;;4.90;99.90;;;;;;5088647;28;20402;-77
2024/01/15 05:43:21;;;;;;;0.30;0.20;;;4.90;99.90;;;;;;5086811;28;20303;-86
2024/01/15 05:45:47;;;;;;;0.30;0.20;;;4.90;99.90;;;;;;5083548;28;20267;-77
2024/01/15 05:48:12;;;;;;;0.30;0.20;;;4.90;99.90;;;;;;5086597;28;20820;-86
2024/01/15 05:50:38;;;;;;;0.30;0.30;;;4.80;99.90;;;;;;5089211;28;20208;-76
2024/01/15 05:53:04;;;;;;;0.30;0.30;;;4.80;99.90;;;;;;5088765;28;20287;-87
2024/01/15 05:55:30;;;;;;;0.30;0.20;;;4.80;99.90;;;;;;5088657;28;20687;-77
2024/01/15 05:57:56;;;;;;;0.30;0.20;;;4.80;99.90;;;;;;5086291;28;20234;-86
2024/01/15 06:00:22;;;;;;;0.30;0.20;;;4.80;99.90;;;;;;5088726;28;20169;-85
2024/01/15 06:02:47;;;;;;;0.30;0.30;;;4.80;99.90;;;;;;5087674;28;20616;-75
2024/01/15 06:05:13;;;;;;;0.30;0.30;;;4.80;99.90;;;;;;5083623;28;20191;-77
2024/01/15 06:07:39;;;;;;;0.30;0.20;;;4.80;99.90;;;;;;5085272;28;20275;-76
2024/01/15 06:10:05;;;;;;;0.30;0.20;;;4.80;99.90;;;;;;5094694;28;20448;-75
2024/01/15 06:12:32;;;;;;;0.30;0.30;;;4.90;99.90;;;;;;5099322;28;20181;-79
2024/01/15 06:14:58;;;;;;;0.30;0.20;;;4.80;99.90;;;;;;5100049;28;20189;-78
2024/01/15 06:17:23;;;;;;;0.30;0.20;;;4.80;99.90;;;;;;5084127;28;20185;-75
2024/01/15 06:19:49;;;;;;;0.30;0.20;;;4.80;99.90;;;;;;5085453;28;20176;-76
2024/01/15 06:22:14;;;;;;;0.30;0.20;;;4.80;99.90;;;;;;5088455;28;20173;-80
2024/01/15 06:24:41;;;;;;;0.30;0.20;;;4.80;99.90;;;;;;5087614;28;20211;-78
2024/01/15 06:27:06;;;;;;;0.30;0.30;;;4.80;99.90;;;;;;5085969;28;20173;-75
2024/01/15 06:29:32;;;;;;;0.30;0.27;;;4.80;99.90;;;;;;5082466;28;20225;-73
2024/01/15 06:31:58;;;;;;;0.30;0.20;;;4.80;99.90;;;;;;5087762;28;20590;-74
2024/01/15 06:34:23;;;;;;;0.30;0.20;;;4.80;99.90;;;;;;5087854;28;20204;-75
2024/01/15 06:36:49;;;;;;;0.30;0.20;;;4.80;99.90;;;;;;5087582;28;20241;-77
2024/01/15 06:39:14;;;;;;;0.30;0.30;;;4.90;99.90;;;;;;5086330;28;20938;-74
2024/01/15 06:41:43;;;;;;;0.30;0.20;;;4.90;99.90;;;;;;5084906;28;20188;-75
2024/01/15 06:44:12;;;;;;;0.30;0.20;;;4.90;99.90;;;;;;5082804;28;20205;-77
2024/01/15 06:46:45;;;;;;;0.30;0.20;;;4.90;99.90;;;;;;5082718;28;20769;-74
2024/01/15 06:49:11;;;;;;;0.30;0.20;;;4.90;99.90;;;;;;5083017;28;20231;-74
2024/01/15 06:51:37;;;;;;;0.30;0.20;;;4.90;99.90;;;;;;5085256;28;20180;-74
2024/01/15 06:54:03;;;;;;;0.30;0.20;;;4.90;99.90;;;;;;5085911;28;20226;-74
2024/01/15 06:56:28;;;;;;;0.30;0.20;;;4.90;99.90;;;;;;5085056;28;20977;-74
2024/01/15 06:58:54;;;;;;;0.30;0.20;;;4.90;99.90;;;;;;5082349;28;20416;-78
2024/01/15 07:01:20;;;;;;;0.30;0.20;;;4.90;99.90;;;;;;5078840;28;20214;-74
2024/01/15 07:03:46;;;;;;;0.30;0.20;;;4.90;99.90;;;;;;5077515;28;20279;-74
2024/01/15 07:06:12;;;;;;;0.30;0.20;;;4.90;99.90;;;;;;5075078;28;20176;-74
2024/01/15 07:08:39;;;;;;;0.30;0.30;;;4.90;99.90;;;;;;5096006;28;20512;-75
2024/01/15 07:11:05;;;;;;;0.30;0.20;;;4.90;99.90;;;;;;5074862;28;20173;-76
2024/01/15 07:13:32;;;;;;;0.30;0.30;;;5.00;99.90;;;;;;5077984;28;20847;-75
2024/01/15 07:15:58;;;;;;;0.30;0.20;;;5.00;99.90;;;;;;5080529;28;20453;-80
2024/01/15 07:18:24;;;;;;;0.30;0.30;;;5.00;99.90;;;;;;5078575;28;20208;-78
2024/01/15 07:20:50;;;;;;;0.30;0.20;;;5.00;99.90;;;;;;5075414;28;20994;-78
2024/01/15 07:23:15;;;;;;;0.30;0.20;;;5.10;99.90;;;;;;5083760;28;20204;-72
2024/01/15 07:25:42;;;;;;;5.03;4.83;;;5.10;99.90;;;;;;5080589;28;20212;-78
2024/01/15 07:28:07;;;;;;;0.30;0.20;;;5.10;99.90;;;;;;5075172;28;20787;-77
2024/01/15 07:30:33;;;;;;;0.30;0.20;;;5.10;99.90;;;;;;5074879;28;20251;-73
2024/01/15 07:32:59;;;;;;;0.30;0.20;;;5.00;99.90;;;;;;5080070;28;20288;-78
2024/01/15 07:35:25;;;;;;;0.30;0.20;;;5.00;99.90;;;;;;5076657;28;20181;-73
2024/01/15 07:37:50;;;;;;;0.30;0.20;;;5.00;99.90;;;;;;5082308;28;20223;-72
2024/01/15 07:40:16;;;;;;;0.30;0.20;;;5.00;99.90;;;;;;5080170;28;20279;-78
2024/01/15 07:42:42;;;;;;;0.30;0.20;;;4.90;99.90;;;;;;5073262;28;20302;-71
2024/01/15 07:45:10;;;;;;;0.30;0.20;;;5.00;99.90;;;;;;5079041;28;20565;-78
2024/01/15 07:47:36;;;;;;;0.30;0.20;;;5.00;99.90;;;;;;5082067;28;20333;-78
2024/01/15 07:50:02;;;;;;;0.30;0.20;;;5.00;99.90;;;;;;5081497;28;20219;-71
2024/01/15 07:52:28;;;;;;;0.30;0.20;;;5.00;99.90;;;;;;5083408;28;20275;-77
2024/01/15 07:54:54;;;;;;;0.30;0.20;;;4.90;99.90;;;;;;5084315;28;20204;-77
2024/01/15 07:57:20;;;;;;;0.30;0.20;;;4.90;99.90;;;;;;5085139;28;20177;-76
2024/01/15 07:59:46;;;;;;;0.30;0.30;;;4.90;99.90;;;;;;5087426;28;20193;-77
2024/01/15 08:02:11;;;;;;;0.30;0.20;;;5.00;99.90;;;;;;5084663;28;20237;-77
2024/01/15 08:04:38;;;;;;;0.30;0.30;;;5.00;99.90;;;;;;5086555;28;20235;-76
2024/01/15 08:07:05;;;;;;;0.30;0.20;;;5.20;99.90;;;;;;5081598;28;20258;-70
2024/01/15 08:09:31;;;;;;;0.30;0.20;;;5.20;99.90;;;;;;5081075;28;20228;-76
2024/01/15 08:11:56;;;;;;;0.30;0.20;;;5.30;99.90;;;;;;5084672;28;20762;-77
2024/01/15 08:14:22;;;;;;;0.30;0.20;;;5.30;99.90;;;;;;5100124;28;20446;-72
2024/01/15 08:16:48;;;;;;;0.30;0.20;;;5.30;99.90;;;;;;5087153;28;20207;-77
2024/01/15 08:19:14;;;;;;;0.30;0.20;;;5.20;99.90;;;;;;5084301;28;20651;-76
2024/01/15 08:21:40;;;;;;;0.30;0.30;;;5.20;99.90;;;;;;5085547;28;20545;-73
2024/01/15 08:24:05;;;;;;;0.30;0.30;;;5.30;99.90;;;;;;5085862;28;20201;-70
2024/01/15 08:26:32;;;;;;;0.30;0.30;;;5.30;99.90;;;;;;5082496;28;20433;-71
2024/01/15 08:28:57;;;;;;;0.30;0.20;;;5.30;99.90;;;;;;5084959;28;20512;-77
2024/01/15 08:31:24;;;;;;;0.30;0.20;;;5.40;99.90;;;;;;5083394;28;20781;-77
2024/01/15 08:33:49;;;;;;;0.30;0.25;;;5.40;99.90;;;;;;5087657;28;20204;-77
2024/01/15 08:36:15;;;;;;;0.30;0.20;;;5.50;99.90;;;;;;5081279;28;20176;-76
2024/01/15 08:38:41;;;;;;;0.30;0.20;;;5.50;99.90;;;;;;5090620;28;20709;-76
2024/01/15 08:41:08;;;;;;;0.30;0.30;;;5.50;99.90;;;;;;5091427;28;20199;-76
2024/01/15 08:43:34;;;;;;;0.30;0.20;;;5.50;99.90;;;;;;5088805;28;20185;-70
2024/01/15 08:46:00;;;;;;;0.30;0.20;;;5.50;99.90;;;;;;5086650;28;20188;-76
2024/01/15 08:48:27;;;;;;;0.30;0.20;;;5.50;99.90;;;;;;5085447;28;20200;-76
2024/01/15 08:50:53;;;;;;;0.30;0.20;;;5.50;99.90;;;;;;5075356;28;20260;-70
2024/01/15 08:53:19;;;;;;;0.30;0.20;;;5.60;99.90;;;;;;5086649;28;20207;-72
2024/01/15 08:55:44;;;;;;;0.30;0.20;;;5.60;99.90;;;;;;5077786;28;20634;-78
2024/01/15 08:58:10;;;;;;;0.30;0.20;;;5.60;99.90;;;;;;5080165;28;20201;-78
2024/01/15 09:00:36;;;;;;;0.30;0.20;;;5.70;99.90;;;;;;5069711;28;20184;-78
2024/01/15 09:03:04;;;;;;;0.30;0.20;;;5.70;99.90;;;;;;5084722;28;20328;-76
2024/01/15 09:05:30;;;;;;;0.30;0.20;;;5.70;99.90;;;;;;5080072;28;20201;-78
2024/01/15 09:07:56;;;;;;;0.30;0.20;;;5.70;99.90;;;;;;5085370;28;20229;-71
2024/01/15 09:10:21;;;;;;;0.30;0.20;;;5.70;99.90;;;;;;5077958;28;20224;-75
2024/01/15 09:12:49;;;;;;;0.30;0.20;;;5.80;99.90;;;;;;5066002;28;20585;-70
2024/01/15 09:15:14;;;;;;;0.30;0.20;;;5.70;99.90;;;;;;5067597;28;20181;-76
2024/01/15 09:17:40;;;;;;;0.30;0.20;;;5.70;99.90;;;;;;5083617;28;20667;-71
2024/01/15 09:20:06;;;;;;;0.30;0.20;;;5.70;99.90;;;;;;5086766;28;20183;-76
2024/01/15 09:22:32;;;;;;;0.30;0.20;;;5.70;99.90;;;;;;5084678;28;20194;-71
2024/01/15 09:24:58;;;;;;;0.30;0.20;;;5.70;99.90;;;;;;5084343;28;20196;-74
2024/01/15 09:27:26;;;;;;;0.30;0.20;;;5.70;99.90;;;;;;5087690;28;20176;-77
2024/01/15 09:29:52;;;;;;;0.30;0.20;;;5.70;99.90;;;;;;5066387;28;20209;-76
2024/01/15 09:32:18;;;;;;;0.30;0.20;;;5.70;99.90;;;;;;5080379;28;20188;-71
2024/01/15 09:34:46;;;;;;;0.30;0.20;;;5.70;99.90;;;;;;5080636;28;20246;-71
2024/01/15 09:37:12;;;;;;;0.30;0.20;;;5.70;99.90;;;;;;5084578;28;20530;-76
2024/01/15 09:39:38;;;;;;;0.30;0.20;;;5.70;99.90;;;;;;5084224;28;20416;-70
2024/01/15 09:42:04;;;;;;;0.30;0.20;;;5.70;99.90;;;;;;5086594;28;20180;-76
2024/01/15 09:44:30;;;;;;;0.30;0.20;;;5.70;99.90;;;;;;5084408;28;20813;-70
2024/01/15 09:46:57;;;;;;;0.30;0.20;;;5.70;99.90;;;;;;5088725;28;20256;-71
2024/01/15 09:49:23;;;;;;;0.30;0.20;;;5.70;99.90;;;;;;5087020;28;20234;-76
2024/01/15 09:51:49;;;;;;;0.30;0.20;;;5.70;99.90;;;;;;5083254;28;20237;-76
2024/01/15 09:54:17;;;;;;;0.30;0.20;;;5.70;99.90;;;;;;5083878;28;20204;-77
2024/01/15 09:56:46;;;;;;;0.30;0.20;;;5.70;99.90;;;;;;5068178;28;20933;-71
2024/01/15 09:59:18;;;;;;;0.30;0.20;;;5.60;99.90;;;;;;5083091;28;20688;-70
2024/01/15 10:01:44;;;;;;;0.30;0.20;;;5.60;99.90;;;;;;5079211;28;20271;-70
2024/01/15 10:04:14;;;;;;;0.30;0.20;;;5.60;99.90;;;;;;5082562;28;20201;-76
2024/01/15 10:06:47;;;;;;;0.30;0.20;;;5.50;99.90;;;;;;5083381;28;20185;-70
2024/01/15 10:09:17;;;;;;;0.30;0.20;;;5.50;99.90;;;;;;5068407;28;20316;-70
2024/01/15 10:11:43;;;;;;;0.30;0.20;;;5.40;99.90;;;;;;5078896;28;20294;-71
2024/01/15 10:14:12;;;;;;;0.30;0.20;;;5.40;99.90;;;;;;5087763;28;20196;-76
2024/01/15 10:16:40;;;;;;;0.40;0.40;;;5.40;99.90;;;;;;5086055;28;20184;-71
2024/01/15 10:19:07;;;;;;;0.40;0.20;;;5.40;99.90;;;;;;5081629;28;20215;-76
2024/01/15 10:21:35;;;;;;;0.30;0.20;;;5.40;99.90;;;;;;5085460;28;20286;-76
2024/01/15 10:24:05;;;;;;;0.30;0.20;;;5.40;99.90;;;;;;5086157;28;20211;-76
2024/01/15 10:26:32;;;;;;;0.30;0.20;;;5.40;99.90;;;;;;5084028;28;20195;-77
2024/01/15 10:29:00;;;;;;;0.30;0.20;;;5.40;99.90;;;;;;5080461;28;20227;-70
2024/01/15 10:31:26;;;;;;;0.30;0.20;;;5.50;99.90;;;;;;5083990;28;20177;-71
2024/01/15 10:33:53;;;;;;;0.30;0.20;;;5.50;99.90;;;;;;5085535;28;20222;-71
2024/01/15 10:36:18;;;;;;;0.30;0.20;;;5.50;99.90;;;;;;5087289;28;20180;-76
2024/01/15 10:38:45;;;;;;;0.30;0.20;;;5.50;99.90;;;;;;5086002;28;20211;-77
2024/01/15 10:41:11;;;;;;;0.30;0.20;;;5.50;99.90;;;;;;5086680;28;20176;-77
2024/01/15 10:43:37;;;;;;;0.30;0.20;;;5.50;99.90;;;;;;5083978;28;20219;-75
2024/01/15 10:46:03;;;;;;;0.30;0.20;;;5.50;99.90;;;;;;5075837;28;20387;-73
2024/01/15 10:48:30;;;;;;;0.30;0.20;;;5.50;99.90;;;;;;5080523;28;20204;-71
2024/01/15 10:50:57;;;;;;;0.30;0.20;;;5.50;99.90;;;;;;5082111;28;20642;-77
2024/01/15 10:53:23;;;;;;;0.32;0.32;;;5.60;99.90;;;;;;5082906;28;20684;-77
2024/01/15 10:55:51;;;;;;;0.30;0.20;;;5.60;99.90;;;;;;5081249;28;20212;-71
2024/01/15 10:58:18;;;;;;;0.30;0.20;;;5.60;99.90;;;;;;5075747;28;20710;-76
2024/01/15 11:00:44;;;;;;;0.30;0.20;;;5.60;99.90;;;;;;5085289;28;20247;-76
2024/01/15 11:03:10;;;;;;;0.30;0.20;;;5.60;99.90;;;;;;5079444;28;20717;-76
2024/01/15 11:05:43;;;;;;;0.40;0.30;;;5.60;99.90;;;;;;5081662;28;20422;-76
2024/01/15 11:08:09;;;;;;;0.30;0.20;;;5.60;99.90;;;;;;5078170;28;20212;-76
2024/01/15 11:10:45;;;;;;;0.30;0.20;;;5.60;99.90;;;;;;5087264;28;20242;-70
2024/01/15 11:13:22;;;;;;;0.30;0.20;;;5.60;99.90;;;;;;5097326;28;20278;-77
2024/01/15 11:16:06;;;;;;;0.30;0.20;;;5.60;99.90;;;;;;5084932;28;20176;-71
2024/01/15 11:18:36;;;;;;;0.30;0.20;;;5.50;99.90;;;;;;5086389;28;20196;-70
2024/01/15 11:21:16;;;;;;;0.30;0.20;;;5.50;99.90;;;;;;5084402;28;20173;-75
2024/01/15 11:23:50;;;;;;;0.30;0.20;;;5.40;99.90;;;;;;5072446;28;20603;-75
2024/01/15 11:26:46;;;;;;;0.30;0.20;;;5.50;99.90;;;;;;5083310;28;20184;-76
2024/01/15 11:29:27;;;;;;;0.30;0.20;;;5.50;99.90;;;;;;5068588;28;20852;-71
2024/01/15 11:31:55;;;;;;;0.30;0.20;;;5.50;99.90;;;;;;5083319;28;20241;-77
2024/01/15 11:34:41;;;;;;;0.30;0.20;;;5.50;99.90;;;;;;5081795;28;20204;-75
2024/01/15 11:37:07;;;;;;;0.30;0.20;;;5.50;99.90;;;;;;5076589;28;20207;-71
2024/01/15 11:39:33;;;;;;;0.30;0.20;;;5.50;99.90;;;;;;5094171;28;20656;-76
2024/01/15 11:42:01;;;;;;;0.30;0.20;;;5.50;99.90;;;;;;5084881;28;20285;-76
2024/01/15 11:44:27;;;;;;;0.30;0.20;;;5.60;99.90;;;;;;5083389;28;20196;-76
2024/01/15 11:47:03;;;;;;;0.30;0.20;;;5.70;99.90;;;;;;5081301;28;20429;-75
2024/01/15 11:49:57;;;;;;;0.30;0.20;;;5.70;99.90;;;;;;5077686;28;20681;-75
2024/01/15 11:52:23;;;;;;;0.30;0.20;;;5.70;99.90;;;;;;5076492;28;20456;-75
2024/01/15 11:55:18;;;;;;;0.30;0.20;;;5.70;99.90;;;;;;5107796;27;20233;-75
2024/01/15 11:57:51;;;;;;;0.30;0.20;;;5.70;99.90;;;;;;5068574;28;20257;-76
2024/01/15 12:00:19;;;;;;;0.30;0.20;;;5.70;99.90;;;;;;5076932;28;20177;-76
2024/01/15 12:02:46;;;;;;;0.30;0.20;;;5.70;99.90;;;;;;5076228;28;20207;-75
2024/01/15 12:05:13;;;;;;;0.30;0.20;;;5.70;99.90;;;;;;5075824;28;20184;-71
2024/01/15 12:07:43;;;;;;;0.30;0.20;;;5.80;99.90;;;;;;5080755;28;20181;-75
2024/01/15 12:10:10;;;;;;;0.30;0.20;;;5.80;99.90;;;;;;5076181;28;20228;-70
2024/01/15 12:12:55;;;;;;;0.30;0.20;;;5.80;99.90;;;;;;5077293;28;20672;-76
2024/01/15 12:15:21;;;;;;;0.30;0.20;;;5.80;99.90;;;;;;5075413;28;20253;-71
2024/01/15 12:17:47;;;;;;;0.30;0.20;;;5.80;99.90;;;;;;5074348;28;20208;-72
2024/01/15 12:20:13;;;;;;;0.30;0.20;;;5.80;99.90;;;;;;5074681;28;20204;-75
2024/01/15 12:22:39;;;;;;;0.30;0.20;;;5.80;99.90;;;;;;5080163;28;20699;-70
2024/01/15 12:25:05;;;;;;;0.30;0.20;;;5.80;99.90;;;;;;5074897;28;20173;-71
2024/01/15 12:27:31;;;;;;;0.30;0.20;;;5.80;99.90;;;;;;5069396;28;20430;-75
2024/01/15 12:29:58;;;;;;;0.30;0.20;;;5.90;99.90;;;;;;5075340;28;20818;-75
2024/01/15 12:32:24;;;;;;;0.30;0.20;;;5.90;99.90;;;;;;5073908;28;20222;-75
2024/01/15 12:34:51;;;;;;;0.30;0.20;;;5.90;99.90;;;;;;5067138;28;20180;-75
2024/01/15 12:37:20;;;;;;;0.30;0.20;;;5.90;99.90;;;;;;5074049;28;20561;-75
2024/01/15 12:39:45;;;;;;;0.30;0.20;;;5.90;99.90;;;;;;5077467;28;20216;-71
2024/01/15 12:42:11;;;;;;;0.30;0.20;;;5.90;99.90;;;;;;5078033;28;20219;-75
2024/01/15 12:44:40;;;;;;;0.30;0.20;;;5.90;99.90;;;;;;5074344;28;20457;-75
2024/01/15 12:47:06;;;;;;;0.30;0.20;;;5.90;99.90;;;;;;5097909;28;20180;-74
2024/01/15 12:49:32;;;;;;;0.30;0.20;;;5.90;99.90;;;;;;5084624;28;20693;-75
2024/01/15 12:51:58;;;;;;;0.30;0.20;;;5.90;99.90;;;;;;5081151;28;20288;-76
2024/01/15 12:54:24;;;;;;;0.30;0.20;;;5.90;99.90;;;;;;5083820;28;20452;-76